createdAt,value
2022-08-20T00:02:10.371Z,8.32
2022-08-20T00:04:39.448Z,8.30
2022-08-20T00:07:06.922Z,9.10
2022-08-20T00:09:36.474Z,8.35
2022-08-20T00:12:07.502Z,8.52
2022-08-20T00:14:35.330Z,9.10
2022-08-20T00:17:03.069Z,8.13
2022-08-20T00:19:29.929Z,8.52
2022-08-20T00:21:58.543Z,8.35
2022-08-20T00:24:26.225Z,7.63
2022-08-20T00:26:53.330Z,7.65
2022-08-20T00:29:20.737Z,8.07
2022-08-20T00:31:50.537Z,7.80
2022-08-20T00:34:17.610Z,8.27
2022-08-20T00:36:44.643Z,8.27
2022-08-20T00:39:11.372Z,8.50
2022-08-20T00:41:38.537Z,8.00
2022-08-20T00:44:18.669Z,8.20
2022-08-20T00:46:46.517Z,7.85
2022-08-20T00:49:20.193Z,7.88
2022-08-20T00:51:53.038Z,7.53
2022-08-20T00:54:29.761Z,7.63
2022-08-20T00:57:08.691Z,8.27
2022-08-20T00:59:40.036Z,7.53
2022-08-20T01:02:11.716Z,8.30
2022-08-20T01:04:39.131Z,8.32
2022-08-20T01:07:07.550Z,8.82
2022-08-20T01:09:57.615Z,8.50
2022-08-20T01:12:25.219Z,9.10
2022-08-20T01:14:52.136Z,9.48
2022-08-20T01:17:23.766Z,9.65
2022-08-20T01:19:59.398Z,9.85
2022-08-20T01:23:04.847Z,9.35
2022-08-20T01:25:37.814Z,9.40
2022-08-20T01:28:05.279Z,9.93
2022-08-20T01:30:33.915Z,10.10
2022-08-20T01:33:02.347Z,9.80
2022-08-20T01:35:29.461Z,10.43
2022-08-20T01:37:56.487Z,10.13
2022-08-20T01:40:48.331Z,9.85
2022-08-20T01:43:15.884Z,10.27
2022-08-20T01:45:44.946Z,12.02
2022-08-20T01:48:15.635Z,11.38
2022-08-20T01:50:49.802Z,10.82
2022-08-20T01:53:30.399Z,11.40
2022-08-20T01:55:57.175Z,11.07
2022-08-20T01:58:23.950Z,11.82
2022-08-20T02:00:50.987Z,12.20
2022-08-20T02:03:17.730Z,12.52
2022-08-20T02:05:45.201Z,12.32
2022-08-20T02:08:12.019Z,13.40
2022-08-20T02:10:38.821Z,12.88
2022-08-20T02:13:05.953Z,13.43
2022-08-20T02:15:37.194Z,13.45
2022-08-20T02:18:10.528Z,14.52
2022-08-20T02:20:39.319Z,14.15
2022-08-20T02:23:09.978Z,13.75
2022-08-20T02:25:40.306Z,14.10
2022-08-20T02:28:10.650Z,14.68
2022-08-20T02:30:42.281Z,15.68
2022-08-20T02:33:12.159Z,15.90
2022-08-20T02:35:41.207Z,15.05
2022-08-20T02:38:08.311Z,15.43
2022-08-20T02:40:36.058Z,14.88
2022-08-20T02:43:04.566Z,15.68
2022-08-20T02:45:42.799Z,16.05
2022-08-20T02:48:20.914Z,16.08
2022-08-20T02:50:53.295Z,15.93
2022-08-20T02:53:20.474Z,15.18
2022-08-20T02:55:47.403Z,16.20
2022-08-20T02:58:15.041Z,17.38
2022-08-20T03:00:42.122Z,16.48
2022-08-20T03:03:11.046Z,17.13
2022-08-20T03:05:40.331Z,16.98
2022-08-20T03:08:10.014Z,16.33
2022-08-20T03:10:38.405Z,17.20
2022-08-20T03:13:05.961Z,17.35
2022-08-20T03:15:34.170Z,16.92
2022-08-20T03:18:01.463Z,17.73
2022-08-20T03:20:29.463Z,15.70
2022-08-20T03:22:57.462Z,18.35
2022-08-20T03:25:24.928Z,17.35
2022-08-20T03:27:54.805Z,17.73
2022-08-20T03:30:23.811Z,17.17
2022-08-20T03:32:50.745Z,18.58
2022-08-20T03:35:19.234Z,17.58
2022-08-20T03:37:48.438Z,17.95
2022-08-20T03:40:24.177Z,17.55
2022-08-20T03:42:52.694Z,17.40
2022-08-20T03:45:21.248Z,18.52
2022-08-20T03:47:49.307Z,17.42
2022-08-20T03:50:23.022Z,18.80
2022-08-20T03:52:51.145Z,19.80
2022-08-20T03:55:18.083Z,18.40
2022-08-20T03:57:50.606Z,18.60
2022-08-20T04:00:25.338Z,18.52
2022-08-20T04:02:52.098Z,18.48
2022-08-20T04:05:19.091Z,18.48
2022-08-20T04:07:45.890Z,17.88
2022-08-20T04:10:13.175Z,18.42
2022-08-20T04:12:41.997Z,17.63
2022-08-20T04:15:19.459Z,18.40
2022-08-20T04:17:50.194Z,19.05
2022-08-20T04:20:23.072Z,18.25
2022-08-20T04:22:59.458Z,17.73
2022-08-20T04:25:29.602Z,20.02
2022-08-20T04:28:00.923Z,18.75
2022-08-20T04:30:28.306Z,19.15
2022-08-20T04:32:56.271Z,19.70
2022-08-20T04:35:24.722Z,19.05
2022-08-20T04:38:03.512Z,19.30
2022-08-20T04:40:49.371Z,18.85
2022-08-20T04:43:16.306Z,19.60
2022-08-20T04:45:44.813Z,19.08
2022-08-20T04:48:14.918Z,19.70
2022-08-20T04:50:44.746Z,17.88
2022-08-20T04:53:13.666Z,20.33
2022-08-20T04:55:43.104Z,19.83
2022-08-20T04:58:38.065Z,19.50
2022-08-20T05:01:10.799Z,21.15
2022-08-20T05:03:39.357Z,18.92
2022-08-20T05:06:08.986Z,20.38
2022-08-20T05:08:38.438Z,19.42
2022-08-20T05:11:34.973Z,19.55
2022-08-20T05:13:53.954Z,19.27
2022-08-20T05:16:21.858Z,18.60
2022-08-20T05:18:52.158Z,18.40
2022-08-20T05:21:21.278Z,18.98
2022-08-20T05:23:49.374Z,19.88
2022-08-20T05:26:17.079Z,18.67
2022-08-20T05:28:52.772Z,18.13
2022-08-20T05:31:32.294Z,18.45
2022-08-20T05:34:10.291Z,18.20
2022-08-20T05:36:40.178Z,18.17
2022-08-20T05:39:08.884Z,18.38
2022-08-20T05:41:36.378Z,18.02
2022-08-20T05:44:04.388Z,18.42
2022-08-20T05:46:32.023Z,18.77
2022-08-20T05:49:01.623Z,17.85
2022-08-20T05:51:29.802Z,16.98
2022-08-20T05:53:59.133Z,17.08
2022-08-20T05:56:26.914Z,18.00
2022-08-20T05:58:55.318Z,17.35
2022-08-20T06:01:22.438Z,17.17
2022-08-20T06:04:07.550Z,18.08
2022-08-20T06:06:45.596Z,17.15
2022-08-20T06:09:15.734Z,16.45
2022-08-20T06:11:42.685Z,16.58
2022-08-20T06:14:10.028Z,16.42
2022-08-20T06:16:37.611Z,15.90
2022-08-20T06:19:05.431Z,16.42
2022-08-20T06:21:32.301Z,16.48
2022-08-20T06:24:01.531Z,16.48
2022-08-20T06:26:30.288Z,15.80
2022-08-20T06:29:02.407Z,15.88
2022-08-20T06:31:29.316Z,16.77
2022-08-20T06:33:56.435Z,16.27
2022-08-20T06:36:23.365Z,16.73
2022-08-20T06:38:50.183Z,16.05
2022-08-20T06:41:17.371Z,15.35
2022-08-20T06:43:44.138Z,16.40
2022-08-20T06:46:11.016Z,17.83
2022-08-20T06:48:38.214Z,16.67
2022-08-20T06:51:06.794Z,16.42
2022-08-20T06:53:33.907Z,16.55
2022-08-20T06:56:00.953Z,16.65
2022-08-20T06:58:37.159Z,17.23
2022-08-20T07:01:11.411Z,16.33
2022-08-20T07:03:55.706Z,17.30
2022-08-20T07:06:25.996Z,16.75
2022-08-20T07:08:54.142Z,16.90
2022-08-20T07:11:26.657Z,16.40
2022-08-20T07:13:56.830Z,16.35
2022-08-20T07:16:24.031Z,16.45
2022-08-20T07:18:50.813Z,17.33
2022-08-20T07:21:17.651Z,16.63
2022-08-20T07:23:44.519Z,16.13
2022-08-20T07:26:12.960Z,16.20
2022-08-20T07:28:39.827Z,16.10
2022-08-20T07:31:25.224Z,16.38
2022-08-20T07:33:53.918Z,16.20
2022-08-20T07:36:20.784Z,17.10
2022-08-20T07:38:48.257Z,16.95
2022-08-20T07:41:15.307Z,16.95
2022-08-20T07:43:45.912Z,18.15
2022-08-20T07:46:15.754Z,17.70
2022-08-20T07:48:49.724Z,17.98
2022-08-20T07:51:19.235Z,18.00
2022-08-20T07:53:47.485Z,15.93
2022-08-20T07:56:21.394Z,17.98
2022-08-20T07:58:53.320Z,17.52
2022-08-20T08:01:29.666Z,17.63
2022-08-20T08:03:57.848Z,16.63
2022-08-20T08:06:29.990Z,17.70
2022-08-20T08:09:24.082Z,17.25
2022-08-20T08:11:51.069Z,16.88
2022-08-20T08:14:26.767Z,17.77
2022-08-20T08:16:58.558Z,17.67
2022-08-20T08:19:28.745Z,17.33
2022-08-20T08:21:58.719Z,17.55
2022-08-20T08:24:28.478Z,17.50
2022-08-20T08:26:55.640Z,18.35
2022-08-20T08:29:27.631Z,18.13
2022-08-20T08:31:54.455Z,17.65
2022-08-20T08:34:22.378Z,17.42
2022-08-20T08:36:50.973Z,18.02
2022-08-20T08:39:18.797Z,17.17
2022-08-20T08:41:49.999Z,18.13
2022-08-20T08:44:27.900Z,16.42
2022-08-20T08:46:59.350Z,17.00
2022-08-20T08:49:37.863Z,16.98
2022-08-20T08:52:11.743Z,18.02
2022-08-20T08:54:45.974Z,18.10
2022-08-20T08:57:13.003Z,18.95
2022-08-20T08:59:47.420Z,17.38
2022-08-20T09:02:31.054Z,18.02
2022-08-20T09:05:01.913Z,17.27
2022-08-20T09:07:33.119Z,17.33
2022-08-20T09:10:02.430Z,16.45
2022-08-20T09:12:29.450Z,16.65
2022-08-20T09:14:56.629Z,17.38
2022-08-20T09:17:24.103Z,16.90
2022-08-20T09:19:52.364Z,16.73
2022-08-20T09:22:22.429Z,16.27
2022-08-20T09:24:50.499Z,15.55
2022-08-20T09:27:18.454Z,15.65
2022-08-20T09:29:46.183Z,16.30
2022-08-20T09:32:24.519Z,16.27
2022-08-20T09:34:59.345Z,16.27
2022-08-20T09:37:33.603Z,15.95
2022-08-20T09:40:04.999Z,15.75
2022-08-20T09:42:40.250Z,15.60
2022-08-20T09:45:10.964Z,17.23
2022-08-20T09:47:48.734Z,17.35
2022-08-20T09:50:25.127Z,16.67
2022-08-20T09:52:54.438Z,17.95
2022-08-20T09:55:24.903Z,16.55
2022-08-20T09:57:52.250Z,17.10
2022-08-20T10:00:20.172Z,19.30
2022-08-20T10:02:47.855Z,17.27
2022-08-20T10:05:14.957Z,17.27
2022-08-20T10:07:42.558Z,17.17
2022-08-20T10:10:12.210Z,18.08
2022-08-20T10:12:39.344Z,18.15
2022-08-20T10:15:06.889Z,18.05
2022-08-20T10:17:38.812Z,17.25
2022-08-20T10:20:06.815Z,16.90
2022-08-20T10:22:34.234Z,17.77
2022-08-20T10:25:01.159Z,17.52
2022-08-20T10:27:27.991Z,16.92
2022-08-20T10:29:55.072Z,16.75
2022-08-20T10:32:21.830Z,16.30
2022-08-20T10:34:49.332Z,17.67
2022-08-20T10:37:18.991Z,15.93
2022-08-20T10:39:46.325Z,17.30
2022-08-20T10:42:13.869Z,17.13
2022-08-20T10:44:40.816Z,16.70
2022-08-20T10:47:34.038Z,16.98
2022-08-20T10:50:04.289Z,16.42
2022-08-20T10:52:31.124Z,17.10
2022-08-20T10:54:58.221Z,16.60
2022-08-20T10:57:28.758Z,16.77
2022-08-20T10:59:57.417Z,16.73
2022-08-20T11:02:25.555Z,17.48
2022-08-20T11:04:53.355Z,16.42
2022-08-20T11:07:50.757Z,16.08
2022-08-20T11:10:24.007Z,16.83
2022-08-20T11:12:50.932Z,17.23
2022-08-20T11:15:18.164Z,17.38
2022-08-20T11:17:46.026Z,18.00
2022-08-20T11:20:15.360Z,18.23
2022-08-20T11:22:42.165Z,18.40
2022-08-20T11:25:09.477Z,17.08
2022-08-20T11:27:39.748Z,18.95
2022-08-20T11:30:10.389Z,18.30
2022-08-20T11:32:37.525Z,18.80
2022-08-20T11:35:19.203Z,18.67
2022-08-20T11:37:54.224Z,18.23
2022-08-20T11:40:21.895Z,18.10
2022-08-20T11:43:13.113Z,17.42
2022-08-20T11:45:37.685Z,16.25
2022-08-20T11:48:05.674Z,16.15
2022-08-20T11:50:32.577Z,16.85
2022-08-20T11:53:01.088Z,17.45
2022-08-20T11:55:30.534Z,16.48
2022-08-20T11:57:59.923Z,18.30
2022-08-20T12:00:32.801Z,18.23
2022-08-20T12:03:02.440Z,18.33
2022-08-20T12:05:32.418Z,17.30
2022-08-20T12:08:01.522Z,16.80
2022-08-20T12:10:29.816Z,17.40
2022-08-20T12:12:57.098Z,18.55
2022-08-20T12:15:26.738Z,17.70
2022-08-20T12:17:54.126Z,17.27
2022-08-20T12:20:21.147Z,16.15
2022-08-20T12:22:47.960Z,12.70
2022-08-20T12:25:15.507Z,10.85
2022-08-20T12:27:42.830Z,10.82
2022-08-20T12:30:13.307Z,10.65
2022-08-20T12:32:41.250Z,11.63
2022-08-20T12:35:09.288Z,10.95
2022-08-20T12:37:36.919Z,11.82
2022-08-20T12:40:08.198Z,13.80
2022-08-20T12:42:35.190Z,13.35
2022-08-20T12:45:01.986Z,12.82
2022-08-20T12:47:32.180Z,13.02
2022-08-20T12:50:08.086Z,12.48
2022-08-20T12:52:35.255Z,11.13
2022-08-20T12:55:04.006Z,9.88
2022-08-20T12:57:59.513Z,13.23
2022-08-20T13:00:38.519Z,12.63
2022-08-20T13:03:07.194Z,10.00
2022-08-20T13:05:35.481Z,9.55
2022-08-20T13:08:03.123Z,9.82
2022-08-20T13:10:34.059Z,10.27
2022-08-20T13:13:04.990Z,8.82
2022-08-20T13:15:32.936Z,7.57
2022-08-20T13:18:02.002Z,7.88
2022-08-20T13:20:31.743Z,8.82
2022-08-20T13:23:03.699Z,8.30
2022-08-20T13:25:31.562Z,8.45
2022-08-20T13:28:00.377Z,7.88
2022-08-20T13:30:27.740Z,7.47
2022-08-20T13:32:54.645Z,8.35
2022-08-20T13:35:21.811Z,8.18
2022-08-20T13:37:49.720Z,7.72
2022-08-20T13:40:17.428Z,7.88
2022-08-20T13:42:44.297Z,8.07
2022-08-20T13:45:11.475Z,8.63
2022-08-20T13:47:39.803Z,7.68
2022-08-20T13:50:15.517Z,7.20
2022-08-20T13:52:43.030Z,9.88
2022-08-20T13:55:11.937Z,9.15
2022-08-20T13:57:38.913Z,10.10
2022-08-20T14:00:10.675Z,14.48
2022-08-20T14:02:37.674Z,8.02
2022-08-20T14:05:04.713Z,6.80
2022-08-20T14:07:32.932Z,7.28
2022-08-20T14:10:02.915Z,6.68
2022-08-20T14:12:30.622Z,7.05
2022-08-20T14:14:57.798Z,5.80
2022-08-20T14:17:30.882Z,6.20
2022-08-20T14:20:07.090Z,5.25
2022-08-20T14:22:36.626Z,5.18
2022-08-20T14:25:08.420Z,5.45
2022-08-20T14:27:36.225Z,5.22
2022-08-20T14:30:11.944Z,6.10
2022-08-20T14:32:38.922Z,5.68
2022-08-20T14:35:06.939Z,5.47
2022-08-20T14:37:38.170Z,5.60
2022-08-20T14:40:09.286Z,4.85
2022-08-20T14:42:36.748Z,6.55
2022-08-20T14:45:06.551Z,5.68
2022-08-20T14:47:36.498Z,6.15
2022-08-20T14:50:10.375Z,5.80
2022-08-20T14:52:38.007Z,5.70
2022-08-20T14:55:07.862Z,5.47
2022-08-20T14:57:35.128Z,4.28
2022-08-20T15:00:02.156Z,4.15
2022-08-20T15:02:29.198Z,3.15
2022-08-20T15:04:56.123Z,3.33
2022-08-20T15:07:29.471Z,3.22
2022-08-20T15:09:57.576Z,3.42
2022-08-20T15:12:24.844Z,3.50
2022-08-20T15:14:51.631Z,2.92
2022-08-20T15:17:24.074Z,3.30
2022-08-20T15:19:51.449Z,3.63
2022-08-20T15:22:19.424Z,3.40
2022-08-20T15:24:46.375Z,3.60
2022-08-20T15:27:22.612Z,4.20
2022-08-20T15:29:51.537Z,3.53
2022-08-20T15:32:19.791Z,3.17
2022-08-20T15:34:47.673Z,3.55
2022-08-20T15:37:17.942Z,3.40
2022-08-20T15:39:45.497Z,3.42
2022-08-20T15:42:13.229Z,3.35
2022-08-20T15:44:41.494Z,3.33
2022-08-20T15:47:14.316Z,2.83
2022-08-20T15:49:41.840Z,3.03
2022-08-20T15:52:08.934Z,2.80
2022-08-20T15:54:36.620Z,3.08
2022-08-20T15:57:12.017Z,3.30
2022-08-20T15:59:57.203Z,2.90
2022-08-20T16:03:01.215Z,2.20
2022-08-20T16:05:37.059Z,1.45
2022-08-20T16:08:21.987Z,1.17
2022-08-20T16:11:04.002Z,1.00
2022-08-20T16:13:46.127Z,1.17
2022-08-20T16:16:43.401Z,0.90
2022-08-20T16:19:18.472Z,0.90
2022-08-20T16:21:48.095Z,1.40
2022-08-20T16:24:15.818Z,0.82
2022-08-20T16:27:07.359Z,0.75
2022-08-20T16:29:45.679Z,0.80
2022-08-20T16:32:31.037Z,0.75
2022-08-20T16:35:07.877Z,1.20
2022-08-20T16:37:41.440Z,1.60
2022-08-20T16:40:35.339Z,1.08
2022-08-20T16:43:08.442Z,1.73
2022-08-20T16:45:50.122Z,1.55
2022-08-20T16:48:18.683Z,1.20
2022-08-20T16:51:15.944Z,1.75
2022-08-20T16:53:43.052Z,1.58
2022-08-20T16:56:09.823Z,1.75
2022-08-20T16:58:36.582Z,1.40
2022-08-20T17:01:06.233Z,1.40
2022-08-20T17:03:39.834Z,2.00
2022-08-20T17:06:21.689Z,1.98
2022-08-20T17:08:51.344Z,1.85
2022-08-20T17:11:33.833Z,2.33
2022-08-20T17:14:19.659Z,2.30
2022-08-20T17:16:49.775Z,3.22
2022-08-20T17:19:28.761Z,2.08
2022-08-20T17:22:07.523Z,1.55
2022-08-20T17:24:35.338Z,1.20
2022-08-20T17:27:10.401Z,2.25
2022-08-20T17:29:53.106Z,1.40
2022-08-20T17:32:26.960Z,1.40
2022-08-20T17:34:58.018Z,1.52
2022-08-20T17:37:33.376Z,1.55
2022-08-20T17:40:09.446Z,2.30
2022-08-20T17:42:48.379Z,1.60
2022-08-20T17:45:24.250Z,1.70
2022-08-20T17:47:52.926Z,1.92
2022-08-20T17:50:24.754Z,1.95
2022-08-20T17:52:56.341Z,1.85
2022-08-20T17:55:23.588Z,1.70
2022-08-20T17:57:56.309Z,1.42
2022-08-20T18:00:28.496Z,1.65
2022-08-20T18:03:00.824Z,1.98
2022-08-20T18:05:32.456Z,1.48
2022-08-20T18:08:08.643Z,2.30
2022-08-20T18:10:47.502Z,8.63
2022-08-20T18:13:23.990Z,3.60
2022-08-20T18:15:57.061Z,3.80
2022-08-20T18:18:56.410Z,4.65
2022-08-20T18:21:50.400Z,4.18
2022-08-20T18:24:29.931Z,3.30
2022-08-20T18:27:02.469Z,3.78
2022-08-20T18:29:37.322Z,3.38
2022-08-20T18:32:35.503Z,3.00
2022-08-20T18:35:18.972Z,3.35
2022-08-20T18:37:45.955Z,2.97
2022-08-20T18:40:29.341Z,2.78
2022-08-20T18:42:59.396Z,2.80
2022-08-20T18:45:36.461Z,2.50
2022-08-20T18:48:05.446Z,2.60
2022-08-20T18:50:46.387Z,3.03
2022-08-20T18:53:13.273Z,2.60
2022-08-20T18:55:43.767Z,2.90
2022-08-20T18:58:48.806Z,2.70
2022-08-20T19:01:16.186Z,2.53
2022-08-20T19:03:47.633Z,2.42
2022-08-20T19:06:33.259Z,2.70
2022-08-20T19:09:33.790Z,2.35
2022-08-20T19:12:06.486Z,2.70
2022-08-20T19:15:00.865Z,2.85
2022-08-20T19:17:54.025Z,2.55
2022-08-20T19:20:24.975Z,2.50
2022-08-20T19:22:54.086Z,2.83
2022-08-20T19:25:50.697Z,2.92
2022-08-20T19:28:45.215Z,2.95
2022-08-20T19:31:16.053Z,5.25
2022-08-20T19:33:47.191Z,5.07
2022-08-20T19:36:21.082Z,4.43
2022-08-20T19:38:52.922Z,3.20
2022-08-20T19:41:31.440Z,5.00
2022-08-20T19:44:00.330Z,6.65
2022-08-20T19:46:38.356Z,9.35
2022-08-20T19:49:27.730Z,5.28
2022-08-20T19:52:20.905Z,4.93
2022-08-20T19:54:53.708Z,4.15
2022-08-20T19:57:23.094Z,3.00
2022-08-20T19:59:57.486Z,3.92
2022-08-20T20:02:28.320Z,3.92
2022-08-20T20:04:57.832Z,3.65
2022-08-20T20:07:34.466Z,3.58
2022-08-20T20:10:03.474Z,3.38
2022-08-20T20:12:33.159Z,3.45
2022-08-20T20:15:00.690Z,3.30
2022-08-20T20:17:32.966Z,4.13
2022-08-20T20:20:14.646Z,3.30
2022-08-20T20:22:56.852Z,2.85
2022-08-20T20:25:38.597Z,3.13
2022-08-20T20:28:13.507Z,2.83
2022-08-20T20:30:41.268Z,2.80
2022-08-20T20:33:16.647Z,2.53
2022-08-20T20:35:44.344Z,3.00
2022-08-20T20:38:24.118Z,2.55
2022-08-20T20:40:54.850Z,2.70
2022-08-20T20:43:35.499Z,2.95
2022-08-20T20:46:29.007Z,2.92
2022-08-20T20:49:22.207Z,2.80
2022-08-20T20:51:56.688Z,2.88
2022-08-20T20:54:42.259Z,2.88
2022-08-20T20:57:38.082Z,2.85
2022-08-20T21:00:11.729Z,3.00
2022-08-20T21:02:38.728Z,2.72
2022-08-20T21:05:06.507Z,2.67
2022-08-20T21:07:33.369Z,2.55
2022-08-20T21:10:00.203Z,2.80
2022-08-20T21:12:26.943Z,3.45
2022-08-20T21:14:54.388Z,6.43
2022-08-20T21:17:23.067Z,5.63
2022-08-20T21:19:51.244Z,4.50
2022-08-20T21:22:19.485Z,4.30
2022-08-20T21:24:48.589Z,3.60
2022-08-20T21:27:15.973Z,2.85
2022-08-20T21:29:42.790Z,3.30
2022-08-20T21:32:12.356Z,3.95
2022-08-20T21:34:40.258Z,2.80
2022-08-20T21:37:07.181Z,2.97
2022-08-20T21:39:34.115Z,2.42
2022-08-20T21:42:03.764Z,2.47
2022-08-20T21:44:32.294Z,2.20
2022-08-20T21:47:00.200Z,2.47
2022-08-20T21:49:29.138Z,2.67
2022-08-20T21:51:56.331Z,2.13
2022-08-20T21:54:24.374Z,2.50
2022-08-20T21:56:56.702Z,2.40
2022-08-20T21:59:25.279Z,2.60
2022-08-20T22:01:52.828Z,2.95
2022-08-20T22:04:19.754Z,2.40
2022-08-20T22:06:47.306Z,2.72
2022-08-20T22:09:15.084Z,3.55
2022-08-20T22:11:42.025Z,2.88
2022-08-20T22:14:10.794Z,2.78
2022-08-20T22:16:37.627Z,2.00
2022-08-20T22:19:13.989Z,2.20
2022-08-20T22:21:42.843Z,2.20
2022-08-20T22:24:11.581Z,2.33
2022-08-20T22:26:41.359Z,2.20
2022-08-20T22:29:10.804Z,2.47
2022-08-20T22:31:40.895Z,2.42
2022-08-20T22:34:10.868Z,4.25
2022-08-20T22:36:37.794Z,8.85
2022-08-20T22:39:05.734Z,4.13
2022-08-20T22:41:32.954Z,4.82
2022-08-20T22:43:59.795Z,4.85
2022-08-20T22:46:30.722Z,4.68
2022-08-20T22:48:57.959Z,6.70
2022-08-20T22:51:30.166Z,3.50
2022-08-20T22:53:58.433Z,4.32
2022-08-20T22:56:26.303Z,3.80
2022-08-20T22:58:53.243Z,3.95
2022-08-20T23:01:21.144Z,3.70
2022-08-20T23:03:48.037Z,3.30
2022-08-20T23:06:14.883Z,2.95
2022-08-20T23:08:42.435Z,4.18
2022-08-20T23:11:09.443Z,3.63
2022-08-20T23:13:37.469Z,3.53
2022-08-20T23:16:06.871Z,2.60
2022-08-20T23:18:33.803Z,2.85
2022-08-20T23:21:01.087Z,1.90
2022-08-20T23:23:28.001Z,2.55
2022-08-20T23:25:55.438Z,2.22
2022-08-20T23:28:25.433Z,2.13
2022-08-20T23:30:52.794Z,2.13
2022-08-20T23:33:19.795Z,1.83
2022-08-20T23:35:47.158Z,1.90
2022-08-20T23:38:14.573Z,1.90
2022-08-20T23:40:43.152Z,1.77
2022-08-20T23:43:10.204Z,1.60
2022-08-20T23:45:39.732Z,1.77
2022-08-20T23:48:07.884Z,1.67
2022-08-20T23:50:35.280Z,1.63
2022-08-20T23:53:02.349Z,1.63
2022-08-20T23:55:29.352Z,2.03
2022-08-20T23:57:56.596Z,1.67
